createdAt,value
2022-08-26T00:02:08.337Z,56.32
2022-08-26T00:04:38.207Z,56.02
2022-08-26T00:07:07.570Z,56.87
2022-08-26T00:09:40.289Z,56.95
2022-08-26T00:12:12.233Z,57.31
2022-08-26T00:14:43.675Z,56.98
2022-08-26T00:17:13.000Z,56.97
2022-08-26T00:19:42.251Z,57.12
2022-08-26T00:22:12.163Z,56.41
2022-08-26T00:24:47.784Z,57.01
2022-08-26T00:27:17.329Z,57.10
2022-08-26T00:29:47.842Z,58.47
2022-08-26T00:32:17.504Z,58.34
2022-08-26T00:34:46.984Z,58.33
2022-08-26T00:37:17.090Z,58.32
2022-08-26T00:39:46.690Z,58.08
2022-08-26T00:42:15.948Z,58.71
2022-08-26T00:44:45.365Z,58.72
2022-08-26T00:47:24.422Z,58.76
2022-08-26T00:49:54.782Z,58.38
2022-08-26T00:52:25.552Z,58.35
2022-08-26T00:55:02.676Z,59.58
2022-08-26T00:57:34.480Z,59.10
2022-08-26T01:00:08.646Z,59.18
2022-08-26T01:02:39.843Z,59.25
2022-08-26T01:05:16.944Z,59.29
2022-08-26T01:07:47.133Z,59.82
2022-08-26T01:10:21.458Z,60.61
2022-08-26T01:12:57.511Z,61.06
2022-08-26T01:15:33.506Z,60.56
2022-08-26T01:18:05.703Z,61.05
2022-08-26T01:20:47.414Z,60.98
2022-08-26T01:23:18.387Z,61.12
2022-08-26T01:26:03.643Z,62.03
2022-08-26T01:28:37.336Z,61.86
2022-08-26T01:31:12.936Z,62.42
2022-08-26T01:34:00.889Z,63.52
2022-08-26T01:36:30.942Z,61.98
2022-08-26T01:39:07.196Z,62.95
2022-08-26T01:41:38.086Z,63.16
2022-08-26T01:44:11.195Z,64.20
2022-08-26T01:46:40.886Z,64.00
2022-08-26T01:49:11.571Z,63.03
2022-08-26T01:51:44.529Z,63.47
2022-08-26T01:54:15.302Z,63.81
2022-08-26T01:56:44.990Z,64.03
2022-08-26T01:59:16.419Z,64.71
2022-08-26T02:01:46.947Z,65.26
2022-08-26T02:04:22.353Z,65.25
2022-08-26T02:06:53.097Z,65.30
2022-08-26T02:09:25.963Z,64.86
2022-08-26T02:12:00.665Z,65.48
2022-08-26T02:14:35.961Z,65.28
2022-08-26T02:17:13.661Z,65.15
2022-08-26T02:19:49.651Z,65.18
2022-08-26T02:22:22.976Z,64.65
2022-08-26T02:24:58.427Z,65.35
2022-08-26T02:27:32.165Z,65.51
2022-08-26T02:30:11.658Z,66.29
2022-08-26T02:32:41.713Z,66.19
2022-08-26T02:35:18.249Z,66.68
2022-08-26T02:37:50.658Z,67.59
2022-08-26T02:40:26.758Z,67.46
2022-08-26T02:42:57.085Z,67.43
2022-08-26T02:45:29.089Z,68.60
2022-08-26T02:47:59.613Z,70.22
2022-08-26T02:50:31.305Z,70.13
2022-08-26T02:53:01.436Z,70.33
2022-08-26T02:55:33.654Z,69.72
2022-08-26T02:58:03.077Z,69.40
2022-08-26T03:00:32.995Z,70.53
2022-08-26T03:03:08.290Z,70.42
2022-08-26T03:05:38.393Z,70.19
2022-08-26T03:08:11.941Z,71.08
2022-08-26T03:10:42.618Z,70.92
2022-08-26T03:13:11.927Z,71.12
2022-08-26T03:15:41.810Z,70.81
2022-08-26T03:18:12.666Z,71.02
2022-08-26T03:20:41.899Z,71.04
2022-08-26T03:23:11.065Z,70.72
2022-08-26T03:25:41.722Z,70.50
2022-08-26T03:28:11.821Z,70.76
2022-08-26T03:30:44.194Z,70.18
2022-08-26T03:33:16.146Z,71.00
2022-08-26T03:35:50.628Z,71.61
2022-08-26T03:38:21.582Z,70.84
2022-08-26T03:40:52.979Z,70.97
2022-08-26T03:43:26.790Z,70.95
2022-08-26T03:45:56.166Z,70.66
2022-08-26T03:48:26.654Z,71.07
2022-08-26T03:50:55.806Z,71.43
2022-08-26T03:53:26.919Z,70.93
2022-08-26T03:55:57.757Z,70.96
2022-08-26T03:58:26.931Z,70.75
2022-08-26T04:00:56.154Z,70.39
2022-08-26T04:03:39.292Z,71.41
2022-08-26T04:06:09.375Z,71.38
2022-08-26T04:08:39.516Z,70.79
2022-08-26T04:11:16.814Z,70.92
2022-08-26T04:13:46.564Z,70.05
2022-08-26T04:16:18.572Z,70.67
2022-08-26T04:18:48.550Z,69.93
2022-08-26T04:21:18.018Z,70.47
2022-08-26T04:23:48.079Z,70.05
2022-08-26T04:26:21.734Z,71.01
2022-08-26T04:28:53.798Z,70.44
2022-08-26T04:31:23.422Z,71.31
2022-08-26T04:33:53.186Z,71.05
2022-08-26T04:36:23.646Z,71.10
2022-08-26T04:38:53.195Z,71.15
2022-08-26T04:41:24.997Z,71.50
2022-08-26T04:43:54.942Z,73.40
2022-08-26T04:46:26.491Z,73.34
2022-08-26T04:48:56.547Z,73.69
2022-08-26T04:51:28.146Z,73.76
2022-08-26T04:53:57.886Z,74.76
2022-08-26T04:56:32.746Z,74.56
2022-08-26T04:59:03.745Z,75.01
2022-08-26T05:01:39.711Z,74.69
2022-08-26T05:04:08.796Z,75.60
2022-08-26T05:06:38.575Z,75.14
2022-08-26T05:09:08.181Z,75.21
2022-08-26T05:11:38.911Z,75.32
2022-08-26T05:14:08.215Z,75.69
2022-08-26T05:16:37.732Z,76.47
2022-08-26T05:19:10.087Z,77.51
2022-08-26T05:21:39.768Z,77.34
2022-08-26T05:24:11.787Z,78.41
2022-08-26T05:26:42.550Z,77.59
2022-08-26T05:29:14.604Z,78.12
2022-08-26T05:31:43.820Z,78.43
2022-08-26T05:34:12.993Z,79.76
2022-08-26T05:36:42.174Z,79.56
2022-08-26T05:39:11.654Z,79.83
2022-08-26T05:41:44.757Z,80.26
2022-08-26T05:44:19.009Z,80.01
2022-08-26T05:46:49.490Z,80.26
2022-08-26T05:49:20.628Z,80.11
2022-08-26T05:51:55.395Z,81.54
2022-08-26T05:54:24.587Z,81.06
2022-08-26T05:56:55.205Z,81.42
2022-08-26T05:59:24.877Z,82.42
2022-08-26T06:01:54.928Z,81.78
2022-08-26T06:04:27.849Z,80.87
2022-08-26T06:06:58.267Z,82.29
2022-08-26T06:09:27.961Z,82.06
2022-08-26T06:11:58.951Z,81.35
2022-08-26T06:14:28.115Z,80.70
2022-08-26T06:16:57.734Z,80.91
2022-08-26T06:19:32.660Z,80.49
2022-08-26T06:22:23.597Z,81.44
2022-08-26T06:25:10.255Z,80.05
2022-08-26T06:27:40.800Z,80.64
2022-08-26T06:30:11.734Z,80.27
2022-08-26T06:32:41.733Z,80.15
2022-08-26T06:35:11.933Z,79.41
2022-08-26T06:37:42.985Z,79.53
2022-08-26T06:40:13.270Z,79.76
2022-08-26T06:42:43.970Z,79.32
2022-08-26T06:45:13.966Z,79.84
2022-08-26T06:47:43.161Z,80.21
2022-08-26T06:50:12.365Z,79.37
2022-08-26T06:52:43.548Z,80.22
2022-08-26T06:55:12.867Z,79.01
2022-08-26T06:57:43.411Z,78.71
2022-08-26T07:00:15.506Z,78.67
2022-08-26T07:02:46.217Z,78.26
2022-08-26T07:05:16.450Z,77.67
2022-08-26T07:07:45.738Z,78.88
2022-08-26T07:10:15.355Z,78.09
2022-08-26T07:12:47.192Z,78.01
2022-08-26T07:15:17.090Z,78.09
2022-08-26T07:17:46.426Z,78.99
2022-08-26T07:20:15.756Z,78.61
2022-08-26T07:22:46.502Z,79.33
2022-08-26T07:25:15.747Z,78.44
2022-08-26T07:27:46.549Z,78.32
2022-08-26T07:30:23.658Z,79.21
2022-08-26T07:32:59.290Z,78.98
2022-08-26T07:35:28.732Z,79.24
2022-08-26T07:37:58.478Z,79.05
2022-08-26T07:40:27.728Z,79.83
2022-08-26T07:42:59.070Z,79.73
2022-08-26T07:45:30.813Z,80.62
2022-08-26T07:48:00.042Z,80.35
2022-08-26T07:50:49.158Z,80.32
2022-08-26T07:53:22.234Z,80.06
2022-08-26T07:55:54.238Z,80.74
2022-08-26T07:58:24.855Z,80.57
2022-08-26T08:00:55.224Z,80.50
2022-08-26T08:03:27.161Z,80.71
2022-08-26T08:05:56.619Z,80.67
2022-08-26T08:08:29.303Z,80.32
2022-08-26T08:10:59.623Z,80.25
2022-08-26T08:13:30.878Z,81.35
2022-08-26T08:16:01.114Z,81.67
2022-08-26T08:18:30.368Z,81.37
2022-08-26T08:21:21.397Z,81.39
2022-08-26T08:23:53.058Z,80.37
2022-08-26T08:26:23.199Z,80.81
2022-08-26T08:34:21.591Z,80.09
2022-08-26T08:36:53.545Z,80.99
2022-08-26T08:39:23.491Z,80.49
2022-08-26T08:42:16.218Z,79.94
2022-08-26T08:44:51.941Z,79.36
2022-08-26T08:47:29.151Z,79.87
2022-08-26T08:50:05.642Z,79.24
2022-08-26T08:52:37.296Z,79.25
2022-08-26T08:55:10.993Z,78.96
2022-08-26T08:57:54.461Z,78.89
2022-08-26T09:00:30.252Z,78.84
2022-08-26T09:03:09.440Z,78.28
2022-08-26T09:05:48.748Z,77.92
2022-08-26T09:08:24.512Z,77.81
2022-08-26T09:10:59.274Z,77.59
2022-08-26T09:13:31.749Z,78.03
2022-08-26T09:16:08.403Z,77.85
2022-08-26T09:19:00.896Z,77.32
2022-08-26T09:21:32.126Z,76.58
2022-08-26T09:24:01.645Z,76.92
2022-08-26T09:26:43.852Z,77.38
2022-08-26T09:29:23.948Z,76.58
2022-08-26T09:32:16.099Z,75.85
2022-08-26T09:34:58.230Z,75.72
2022-08-26T09:37:41.754Z,74.87
2022-08-26T09:40:34.677Z,75.02
2022-08-26T09:43:22.506Z,75.31
2022-08-26T09:45:59.605Z,75.50
2022-08-26T09:48:36.093Z,74.92
2022-08-26T09:51:08.088Z,75.77
2022-08-26T09:53:53.429Z,74.73
2022-08-26T09:56:28.936Z,74.48
2022-08-26T09:58:59.688Z,74.24
2022-08-26T10:01:35.536Z,73.99
2022-08-26T10:04:10.425Z,74.62
2022-08-26T10:06:44.822Z,73.75
2022-08-26T10:09:18.766Z,74.58
2022-08-26T10:11:52.181Z,75.58
2022-08-26T10:14:27.454Z,76.60
2022-08-26T10:17:07.032Z,76.85
2022-08-26T10:19:57.033Z,76.56
2022-08-26T10:22:34.325Z,76.66
2022-08-26T10:25:12.471Z,77.12
2022-08-26T10:27:53.424Z,78.73
2022-08-26T10:30:30.420Z,79.13
2022-08-26T10:33:08.069Z,77.79
2022-08-26T10:35:49.676Z,79.23
2022-08-26T10:38:28.874Z,78.55
2022-08-26T10:41:09.939Z,77.45
2022-08-26T10:43:47.631Z,78.30
2022-08-26T10:46:27.091Z,78.68
2022-08-26T10:49:01.518Z,78.10
2022-08-26T10:51:42.301Z,77.14
2022-08-26T10:54:23.748Z,77.50
2022-08-26T10:57:02.955Z,76.52
2022-08-26T10:59:49.722Z,75.05
2022-08-26T11:02:32.018Z,75.67
2022-08-26T11:05:04.609Z,76.40
2022-08-26T11:07:38.289Z,76.57
2022-08-26T11:10:14.114Z,75.99
2022-08-26T11:13:09.088Z,75.81
2022-08-26T11:16:11.323Z,76.54
2022-08-26T11:18:47.151Z,76.22
2022-08-26T11:21:48.855Z,74.80
2022-08-26T11:25:05.477Z,76.07
2022-08-26T11:28:06.009Z,76.03
2022-08-26T11:30:56.867Z,75.88
2022-08-26T11:33:59.844Z,74.85
2022-08-26T11:36:59.794Z,73.76
2022-08-26T11:39:36.959Z,73.81
2022-08-26T11:42:28.493Z,73.12
2022-08-26T11:44:59.864Z,73.89
2022-08-26T11:47:33.699Z,72.77
2022-08-26T11:50:18.233Z,72.62
2022-08-26T11:53:02.419Z,73.22
2022-08-26T11:55:33.675Z,73.28
2022-08-26T11:58:07.615Z,73.08
2022-08-26T12:00:58.029Z,72.76
2022-08-26T12:03:37.835Z,71.68
2022-08-26T12:06:15.733Z,72.70
2022-08-26T12:08:46.811Z,70.63
2022-08-26T12:11:23.503Z,69.42
2022-08-26T12:13:59.615Z,68.17
2022-08-26T12:16:34.405Z,67.98
2022-08-26T12:19:03.806Z,66.84
2022-08-26T12:21:34.551Z,66.06
2022-08-26T12:24:05.535Z,66.64
2022-08-26T12:26:38.218Z,66.90
2022-08-26T12:29:20.071Z,66.59
2022-08-26T12:32:11.190Z,66.50
2022-08-26T12:34:41.762Z,65.48
2022-08-26T12:37:14.156Z,64.93
2022-08-26T12:39:46.117Z,63.89
2022-08-26T12:42:42.496Z,64.18
2022-08-26T12:45:13.440Z,64.34
2022-08-26T12:47:45.232Z,63.72
2022-08-26T12:50:26.662Z,62.36
2022-08-26T12:53:01.838Z,61.05
2022-08-26T12:55:44.102Z,60.76
2022-08-26T12:58:27.681Z,60.64
2022-08-26T13:01:09.954Z,62.81
2022-08-26T13:03:44.879Z,63.03
2022-08-26T13:06:33.128Z,63.67
2022-08-26T13:09:31.499Z,63.70
2022-08-26T13:12:02.224Z,62.95
2022-08-26T13:14:31.767Z,62.71
2022-08-26T13:17:02.261Z,62.87
2022-08-26T13:19:31.547Z,62.10
2022-08-26T13:22:06.220Z,62.27
2022-08-26T13:24:39.347Z,60.14
2022-08-26T13:27:12.194Z,59.39
2022-08-26T13:29:42.072Z,58.78
2022-08-26T13:32:12.643Z,58.63
2022-08-26T13:34:42.808Z,58.76
2022-08-26T13:37:11.942Z,57.98
2022-08-26T13:39:42.091Z,58.03
2022-08-26T13:42:11.299Z,57.44
2022-08-26T13:44:43.067Z,57.05
2022-08-26T13:47:13.660Z,55.84
2022-08-26T13:49:44.786Z,56.47
2022-08-26T13:52:15.025Z,56.51
2022-08-26T13:54:47.599Z,56.15
2022-08-26T13:57:16.634Z,55.50
2022-08-26T13:59:46.179Z,56.61
2022-08-26T14:02:19.540Z,56.11
2022-08-26T14:04:51.821Z,55.26
2022-08-26T14:07:21.124Z,54.55
2022-08-26T14:09:50.376Z,54.25
2022-08-26T14:12:19.594Z,54.09
2022-08-26T14:14:49.041Z,54.21
2022-08-26T14:17:24.513Z,53.51
2022-08-26T14:19:54.950Z,53.46
2022-08-26T14:22:24.718Z,53.33
2022-08-26T14:24:54.062Z,53.70
2022-08-26T14:27:23.288Z,53.55
2022-08-26T14:29:52.533Z,53.45
2022-08-26T14:32:28.304Z,52.72
2022-08-26T14:34:57.812Z,53.46
2022-08-26T14:37:27.365Z,52.86
2022-08-26T14:39:56.913Z,52.71
2022-08-26T14:42:31.600Z,53.25
2022-08-26T14:45:04.098Z,53.41
2022-08-26T14:47:34.825Z,54.01
2022-08-26T14:50:04.515Z,54.03
2022-08-26T14:52:54.153Z,54.22
2022-08-26T14:55:22.285Z,53.53
2022-08-26T14:57:51.386Z,54.11
2022-08-26T15:00:20.840Z,53.50
2022-08-26T15:02:52.120Z,53.08
2022-08-26T15:05:21.679Z,53.57
2022-08-26T15:07:50.793Z,53.15
2022-08-26T15:10:20.904Z,52.31
2022-08-26T15:12:50.067Z,52.13
2022-08-26T15:15:19.858Z,52.63
2022-08-26T15:17:50.426Z,52.19
2022-08-26T15:20:20.409Z,51.76
2022-08-26T15:22:51.160Z,51.46
2022-08-26T15:25:20.518Z,51.55
2022-08-26T15:27:49.717Z,50.38
2022-08-26T15:30:18.947Z,50.96
2022-08-26T15:32:48.204Z,49.26
2022-08-26T15:35:19.526Z,50.05
2022-08-26T15:40:23.705Z,49.84
2022-08-26T15:43:01.226Z,48.49
2022-08-26T15:45:40.747Z,47.83
2022-08-26T15:50:51.802Z,47.28
2022-08-26T15:53:22.669Z,46.71
2022-08-26T15:55:54.239Z,47.71
2022-08-26T15:58:24.294Z,47.91
2022-08-26T16:00:57.027Z,47.31
2022-08-26T16:03:26.290Z,46.67
2022-08-26T16:05:56.990Z,46.75
2022-08-26T16:08:27.140Z,47.00
2022-08-26T16:11:03.366Z,45.19
2022-08-26T16:13:39.868Z,45.43
2022-08-26T16:16:10.195Z,45.86
2022-08-26T16:18:39.589Z,46.04
2022-08-26T16:21:13.309Z,45.43
2022-08-26T16:23:45.370Z,46.12
2022-08-26T16:26:18.116Z,46.74
2022-08-26T16:28:48.174Z,46.38
2022-08-26T16:31:18.114Z,46.43
2022-08-26T16:33:47.804Z,45.93
2022-08-26T16:36:18.689Z,45.50
2022-08-26T16:38:53.466Z,45.29
2022-08-26T16:41:23.137Z,45.79
2022-08-26T16:43:55.867Z,45.72
2022-08-26T16:46:26.652Z,46.16
2022-08-26T16:48:57.845Z,45.39
2022-08-26T16:51:29.782Z,45.87
2022-08-26T16:56:34.418Z,45.72
2022-08-26T16:59:04.227Z,46.73
2022-08-26T17:01:33.604Z,46.36
2022-08-26T17:04:02.858Z,46.73
2022-08-26T17:06:34.143Z,46.62
2022-08-26T17:09:03.461Z,46.71
2022-08-26T17:11:33.112Z,47.15
2022-08-26T17:14:02.973Z,46.24
2022-08-26T17:16:32.865Z,46.27
2022-08-26T17:19:02.952Z,47.14
2022-08-26T17:21:35.740Z,46.98
2022-08-26T17:24:06.097Z,47.08
2022-08-26T17:26:36.007Z,47.43
2022-08-26T17:29:07.336Z,46.93
2022-08-26T17:31:36.857Z,46.23
2022-08-26T17:34:06.302Z,47.18
2022-08-26T17:36:36.876Z,46.53
2022-08-26T17:39:06.174Z,46.97
2022-08-26T17:41:35.327Z,46.99
2022-08-26T17:44:05.394Z,46.79
2022-08-26T17:46:38.239Z,47.37
2022-08-26T17:49:08.384Z,46.75
2022-08-26T17:51:39.042Z,47.28
2022-08-26T17:54:09.339Z,46.54
2022-08-26T17:56:38.485Z,47.10
2022-08-26T17:59:10.067Z,46.90
2022-08-26T18:01:40.002Z,46.84
2022-08-26T18:04:10.191Z,46.75
2022-08-26T18:06:43.533Z,46.88
2022-08-26T18:09:13.038Z,46.63
2022-08-26T18:11:42.313Z,47.23
2022-08-26T18:14:11.525Z,46.96
2022-08-26T18:16:41.761Z,46.57
2022-08-26T18:19:11.728Z,46.13
2022-08-26T18:21:42.430Z,46.66
2022-08-26T18:24:14.087Z,46.20
2022-08-26T18:26:48.353Z,45.93
2022-08-26T18:29:24.055Z,46.29
2022-08-26T18:31:53.632Z,45.98
2022-08-26T18:34:23.268Z,45.01
2022-08-26T18:37:02.114Z,44.97
2022-08-26T18:39:31.550Z,45.06
2022-08-26T18:42:03.520Z,45.52
2022-08-26T18:44:32.778Z,45.17
2022-08-26T18:47:02.094Z,45.28
2022-08-26T18:49:31.562Z,44.89
2022-08-26T18:52:02.700Z,45.55
2022-08-26T18:54:32.430Z,45.67
2022-08-26T18:57:02.858Z,45.64
2022-08-26T18:59:32.362Z,45.89
2022-08-26T19:02:01.798Z,45.63
2022-08-26T19:04:33.991Z,45.96
2022-08-26T19:07:06.391Z,46.40
2022-08-26T19:09:36.035Z,46.61
2022-08-26T19:12:08.503Z,46.27
2022-08-26T19:14:38.242Z,46.49
2022-08-26T19:17:07.735Z,47.16
2022-08-26T19:19:38.868Z,47.01
2022-08-26T19:22:09.618Z,46.75
2022-08-26T19:24:38.838Z,47.41
2022-08-26T19:27:11.681Z,47.28
2022-08-26T19:29:43.588Z,47.30
2022-08-26T19:32:12.929Z,47.79
2022-08-26T19:34:42.539Z,47.48
2022-08-26T19:37:13.319Z,47.43
2022-08-26T19:39:42.635Z,48.25
2022-08-26T19:42:11.834Z,48.16
2022-08-26T19:44:58.808Z,48.21
2022-08-26T19:47:28.134Z,48.65
2022-08-26T19:49:58.281Z,48.81
2022-08-26T19:52:30.267Z,48.93
2022-08-26T19:54:59.865Z,49.52
2022-08-26T19:57:29.210Z,49.02
2022-08-26T19:59:58.551Z,49.07
2022-08-26T20:02:28.045Z,49.72
2022-08-26T20:04:57.918Z,49.50
2022-08-26T20:07:28.537Z,50.12
2022-08-26T20:09:59.462Z,49.91
2022-08-26T20:12:29.377Z,49.75
2022-08-26T20:14:58.877Z,49.57
2022-08-26T20:17:28.441Z,50.10
2022-08-26T20:20:32.743Z,50.24
2022-08-26T20:23:05.560Z,50.32
2022-08-26T20:25:35.791Z,50.43
2022-08-26T20:28:05.673Z,50.49
2022-08-26T20:30:35.446Z,50.52
2022-08-26T20:33:05.038Z,50.82
2022-08-26T20:35:34.635Z,50.93
2022-08-26T20:38:06.061Z,51.24
2022-08-26T20:40:35.922Z,50.92
2022-08-26T20:43:06.617Z,51.27
2022-08-26T20:45:36.404Z,51.13
2022-08-26T20:48:06.049Z,51.59
2022-08-26T20:50:35.376Z,52.41
2022-08-26T20:53:06.164Z,52.39
2022-08-26T20:55:35.843Z,51.86
2022-08-26T20:58:05.757Z,52.63
2022-08-26T21:00:38.358Z,51.92
2022-08-26T21:03:07.688Z,53.22
2022-08-26T21:05:37.649Z,52.66
2022-08-26T21:08:08.376Z,52.77
2022-08-26T21:10:39.481Z,52.67
2022-08-26T21:13:09.389Z,53.09
2022-08-26T21:15:38.773Z,53.36
2022-08-26T21:18:08.169Z,53.01
2022-08-26T21:20:38.455Z,53.14
2022-08-26T21:23:09.150Z,54.13
2022-08-26T21:25:38.439Z,54.00
2022-08-26T21:28:07.844Z,54.70
2022-08-26T21:30:39.612Z,54.36
2022-08-26T21:33:09.659Z,55.12
2022-08-26T21:35:39.027Z,54.84
2022-08-26T21:38:09.984Z,54.73
2022-08-26T21:40:39.281Z,55.27
2022-08-26T21:43:08.379Z,54.60
2022-08-26T21:45:42.848Z,55.53
2022-08-26T21:48:12.239Z,56.13
2022-08-26T21:50:41.505Z,55.19
2022-08-26T21:53:15.480Z,54.99
2022-08-26T21:55:45.844Z,55.84
2022-08-26T21:58:15.460Z,56.31
2022-08-26T22:00:50.026Z,56.37
2022-08-26T22:03:19.789Z,56.08
2022-08-26T22:05:51.370Z,56.09
2022-08-26T22:08:24.934Z,56.90
2022-08-26T22:10:58.524Z,56.88
2022-08-26T22:13:30.665Z,57.31
2022-08-26T22:16:01.965Z,57.57
2022-08-26T22:18:31.786Z,57.58
2022-08-26T22:21:04.454Z,57.47
2022-08-26T22:23:35.600Z,58.06
2022-08-26T22:26:05.715Z,57.64
2022-08-26T22:28:35.691Z,56.84
2022-08-26T22:31:05.270Z,57.78
2022-08-26T22:33:34.736Z,57.50
2022-08-26T22:36:07.598Z,58.09
2022-08-26T22:38:38.254Z,58.13
2022-08-26T22:41:09.996Z,57.67
2022-08-26T22:43:39.600Z,58.07
2022-08-26T22:46:10.771Z,58.10
2022-08-26T22:48:40.304Z,58.48
2022-08-26T22:51:09.522Z,58.28
2022-08-26T22:53:42.119Z,57.58
2022-08-26T22:56:12.465Z,57.97
2022-08-26T22:58:41.822Z,58.28
2022-08-26T23:01:10.996Z,57.76
2022-08-26T23:03:40.413Z,57.91
2022-08-26T23:06:11.368Z,58.71
2022-08-26T23:08:45.300Z,57.65
2022-08-26T23:11:15.412Z,58.27
2022-08-26T23:13:44.875Z,59.04
2022-08-26T23:16:15.726Z,58.79
2022-08-26T23:18:45.065Z,59.12
2022-08-26T23:21:17.728Z,58.91
2022-08-26T23:23:48.314Z,58.63
2022-08-26T23:26:17.920Z,59.41
2022-08-26T23:28:47.157Z,58.43
2022-08-26T23:31:16.452Z,59.48
2022-08-26T23:34:02.863Z,58.75
2022-08-26T23:36:34.984Z,59.42
2022-08-26T23:39:06.998Z,58.94
2022-08-26T23:41:36.858Z,59.70
2022-08-26T23:44:06.441Z,59.18
2022-08-26T23:46:37.919Z,59.05
2022-08-26T23:49:07.610Z,60.12
2022-08-26T23:51:54.247Z,59.03
2022-08-26T23:54:24.885Z,59.45
2022-08-26T23:56:54.331Z,60.05
2022-08-26T23:59:23.485Z,59.23
